createdAt,value
2022-12-15T00:00:04.390Z,-9.12
2022-12-15T00:01:04.449Z,-9.12
2022-12-15T00:02:04.479Z,-9.12
2022-12-15T00:03:04.481Z,-9.19
2022-12-15T00:04:04.452Z,-9.19
2022-12-15T00:05:04.242Z,-9.19
2022-12-15T00:06:04.388Z,-9.19
2022-12-15T00:07:03.588Z,-9.19
2022-12-15T00:08:04.303Z,-9.19
2022-12-15T00:09:05.301Z,-9.19
2022-12-15T00:10:04.470Z,-9.19
2022-12-15T00:11:04.383Z,-9.19
2022-12-15T00:12:04.553Z,-9.25
2022-12-15T00:13:03.499Z,-9.25
2022-12-15T00:14:03.586Z,-9.25
2022-12-15T00:15:03.518Z,-9.25
2022-12-15T00:16:03.643Z,-9.25
2022-12-15T00:17:03.500Z,-9.25
2022-12-15T00:18:03.788Z,-9.25
2022-12-15T00:19:03.748Z,-9.25
2022-12-15T00:20:03.673Z,-9.31
2022-12-15T00:21:03.907Z,-9.31
2022-12-15T00:22:03.658Z,-9.31
2022-12-15T00:23:03.822Z,-9.31
2022-12-15T00:24:03.747Z,-9.31
2022-12-15T00:25:03.747Z,-9.31
2022-12-15T00:26:03.818Z,-9.31
2022-12-15T00:28:04.227Z,-9.38
2022-12-15T00:29:04.218Z,-9.38
2022-12-15T00:30:04.144Z,-9.38
2022-12-15T00:31:04.113Z,-9.38
2022-12-15T00:32:04.227Z,-9.38
2022-12-15T00:33:04.303Z,-9.38
2022-12-15T00:34:04.304Z,-9.38
2022-12-15T00:35:03.416Z,-9.38
2022-12-15T00:36:04.467Z,-9.38
2022-12-15T00:37:04.465Z,-9.38
2022-12-15T00:38:04.394Z,-9.38
2022-12-15T00:39:04.376Z,-9.38
2022-12-15T00:40:04.543Z,-9.44
2022-12-15T00:41:03.506Z,-9.44
2022-12-15T00:42:03.513Z,-9.44
2022-12-15T00:43:03.506Z,-9.44
2022-12-15T00:44:03.584Z,-9.44
2022-12-15T00:45:03.591Z,-9.44
2022-12-15T00:46:03.724Z,-9.44
2022-12-15T00:47:03.803Z,-9.38
2022-12-15T00:48:03.666Z,-9.44
2022-12-15T00:49:03.825Z,-9.44
2022-12-15T00:50:03.746Z,-9.44
2022-12-15T00:51:03.581Z,-9.44
2022-12-15T00:52:03.577Z,-9.44
2022-12-15T00:53:03.504Z,-9.44
2022-12-15T00:54:03.520Z,-9.44
2022-12-15T00:55:04.461Z,-9.44
2022-12-15T00:56:03.591Z,-9.44
2022-12-15T00:57:03.500Z,-9.44
2022-12-15T00:58:04.559Z,-9.50
2022-12-15T00:59:03.441Z,-9.44
2022-12-15T01:00:04.477Z,-9.50
2022-12-15T01:01:04.463Z,-9.50
2022-12-15T01:02:03.591Z,-9.50
2022-12-15T01:03:03.807Z,-9.50
2022-12-15T01:04:04.432Z,-9.50
2022-12-15T01:05:04.383Z,-9.50
2022-12-15T01:06:04.300Z,-9.50
2022-12-15T01:07:04.387Z,-9.56
2022-12-15T01:08:04.388Z,-9.56
2022-12-15T01:09:04.304Z,-9.56
2022-12-15T01:10:04.651Z,-9.56
2022-12-15T01:11:03.586Z,-9.56
2022-12-15T01:12:03.499Z,-9.56
2022-12-15T01:13:03.657Z,-9.56
2022-12-15T01:14:03.740Z,-9.56
2022-12-15T01:15:03.746Z,-9.56
2022-12-15T01:16:03.844Z,-9.56
2022-12-15T01:17:03.662Z,-9.56
2022-12-15T01:18:03.593Z,-9.56
2022-12-15T01:19:03.700Z,-9.56
2022-12-15T01:20:03.675Z,-9.56
2022-12-15T01:21:03.743Z,-9.62
2022-12-15T01:22:03.665Z,-9.62
2022-12-15T01:23:03.573Z,-9.62
2022-12-15T01:24:03.752Z,-9.62
2022-12-15T01:25:04.470Z,-9.62
2022-12-15T01:26:04.226Z,-9.62
2022-12-15T01:27:04.152Z,-9.62
2022-12-15T01:28:04.236Z,-9.62
2022-12-15T01:29:04.222Z,-9.62
2022-12-15T01:30:04.313Z,-9.62
2022-12-15T01:31:04.504Z,-9.62
2022-12-15T01:32:04.224Z,-9.62
2022-12-15T01:33:04.298Z,-9.62
2022-12-15T01:34:04.305Z,-9.62
2022-12-15T01:35:04.223Z,-9.62
2022-12-15T01:36:04.317Z,-9.62
2022-12-15T01:37:04.386Z,-9.62
2022-12-15T01:38:03.591Z,-9.56
2022-12-15T01:39:03.592Z,-9.62
2022-12-15T01:40:03.610Z,-9.56
2022-12-15T01:41:03.511Z,-9.56
2022-12-15T01:42:03.588Z,-9.56
2022-12-15T01:43:03.743Z,-9.56
2022-12-15T01:44:03.739Z,-9.56
2022-12-15T01:45:03.752Z,-9.50
2022-12-15T01:46:03.819Z,-9.50
2022-12-15T01:47:03.784Z,-9.50
2022-12-15T01:48:03.832Z,-9.50
2022-12-15T01:49:03.910Z,-9.50
2022-12-15T01:50:03.907Z,-9.50
2022-12-15T01:51:03.824Z,-9.50
2022-12-15T01:52:03.904Z,-9.50
2022-12-15T01:53:03.990Z,-9.50
2022-12-15T01:54:03.903Z,-9.50
2022-12-15T01:55:04.357Z,-9.50
2022-12-15T01:56:03.501Z,-9.50
2022-12-15T01:57:03.740Z,-9.50
2022-12-15T01:58:03.747Z,-9.50
2022-12-15T01:59:03.665Z,-9.50
2022-12-15T02:00:03.585Z,-9.50
2022-12-15T02:01:03.796Z,-9.50
2022-12-15T02:02:03.965Z,-9.50
2022-12-15T02:03:03.888Z,-9.50
2022-12-15T02:04:03.906Z,-9.44
2022-12-15T02:05:03.748Z,-9.50
2022-12-15T02:06:03.756Z,-9.44
2022-12-15T02:07:03.736Z,-9.44
2022-12-15T02:08:03.851Z,-9.44
2022-12-15T02:09:03.825Z,-9.44
2022-12-15T02:10:03.983Z,-9.44
2022-12-15T02:11:03.737Z,-9.44
2022-12-15T02:12:03.662Z,-9.44
2022-12-15T02:13:03.740Z,-9.44
2022-12-15T02:14:04.062Z,-9.44
2022-12-15T02:15:04.069Z,-9.44
2022-12-15T02:16:04.290Z,-9.44
2022-12-15T02:17:04.156Z,-9.44
2022-12-15T02:18:04.062Z,-9.44
2022-12-15T02:19:04.216Z,-9.44
2022-12-15T02:20:04.144Z,-9.44
2022-12-15T02:21:04.057Z,-9.44
2022-12-15T02:22:04.145Z,-9.38
2022-12-15T02:23:04.141Z,-9.38
2022-12-15T02:24:05.273Z,-9.38
2022-12-15T02:25:04.395Z,-9.38
2022-12-15T02:26:04.304Z,-9.38
2022-12-15T02:27:04.380Z,-9.38
2022-12-15T02:28:04.546Z,-9.38
2022-12-15T02:29:04.386Z,-9.38
2022-12-15T02:30:04.392Z,-9.38
2022-12-15T02:31:04.327Z,-9.38
2022-12-15T02:32:03.726Z,-9.38
2022-12-15T02:33:03.496Z,-9.38
2022-12-15T02:34:03.503Z,-9.38
2022-12-15T02:35:03.428Z,-9.38
2022-12-15T02:36:04.385Z,-9.38
2022-12-15T02:37:04.468Z,-9.38
2022-12-15T02:38:04.462Z,-9.38
2022-12-15T02:39:04.381Z,-9.38
2022-12-15T02:40:04.545Z,-9.44
2022-12-15T02:41:03.505Z,-9.44
2022-12-15T02:42:04.378Z,-9.38
2022-12-15T02:43:04.536Z,-9.44
2022-12-15T02:44:04.389Z,-9.44
2022-12-15T02:45:04.400Z,-9.44
2022-12-15T02:46:04.411Z,-9.44
2022-12-15T02:47:04.230Z,-9.44
2022-12-15T02:48:04.145Z,-9.44
2022-12-15T02:49:04.386Z,-9.44
2022-12-15T02:50:04.414Z,-9.44
2022-12-15T02:51:04.303Z,-9.50
2022-12-15T02:52:04.381Z,-9.50
2022-12-15T02:53:04.466Z,-9.50
2022-12-15T02:54:04.389Z,-9.50
2022-12-15T02:55:04.384Z,-9.50
2022-12-15T02:56:04.304Z,-9.50
2022-12-15T02:57:04.408Z,-9.50
2022-12-15T02:58:04.470Z,-9.50
2022-12-15T02:59:04.299Z,-9.50
2022-12-15T03:00:04.305Z,-9.50
2022-12-15T03:01:04.446Z,-9.50
2022-12-15T03:02:04.601Z,-9.50
2022-12-15T03:03:04.656Z,-9.50
2022-12-15T03:04:04.306Z,-9.50
2022-12-15T03:05:03.494Z,-9.50
2022-12-15T03:06:03.589Z,-9.50
2022-12-15T03:07:03.662Z,-9.50
2022-12-15T03:08:03.580Z,-9.50
2022-12-15T03:09:03.499Z,-9.50
2022-12-15T03:10:03.665Z,-9.50
2022-12-15T03:11:03.507Z,-9.50
2022-12-15T03:12:03.590Z,-9.50
2022-12-15T03:13:03.661Z,-9.50
2022-12-15T03:14:03.509Z,-9.50
2022-12-15T03:15:03.505Z,-9.50
2022-12-15T03:16:04.641Z,-9.50
2022-12-15T03:17:03.512Z,-9.50
2022-12-15T03:18:03.670Z,-9.50
2022-12-15T03:19:03.505Z,-9.50
2022-12-15T03:20:03.512Z,-9.50
2022-12-15T03:21:04.377Z,-9.50
2022-12-15T03:22:04.554Z,-9.50
2022-12-15T03:23:03.504Z,-9.50
2022-12-15T03:24:04.467Z,-9.44
2022-12-15T03:25:04.627Z,-9.44
2022-12-15T03:26:03.578Z,-9.44
2022-12-15T03:27:04.627Z,-9.44
2022-12-15T03:28:03.583Z,-9.44
2022-12-15T03:29:03.661Z,-9.50
2022-12-15T03:30:03.670Z,-9.50
2022-12-15T03:31:03.588Z,-9.50
2022-12-15T03:32:03.771Z,-9.50
2022-12-15T03:33:03.585Z,-9.50
2022-12-15T03:34:03.541Z,-9.50
2022-12-15T03:35:03.592Z,-9.56
2022-12-15T03:36:03.576Z,-9.56
2022-12-15T03:37:03.585Z,-9.56
2022-12-15T03:38:03.593Z,-9.56
2022-12-15T03:39:03.582Z,-9.56
2022-12-15T03:41:03.762Z,-9.56
2022-12-15T03:42:03.822Z,-9.56
2022-12-15T03:43:03.667Z,-9.56
2022-12-15T03:44:03.659Z,-9.56
2022-12-15T03:45:03.753Z,-9.62
2022-12-15T03:46:03.735Z,-9.62
2022-12-15T03:47:03.978Z,-9.62
2022-12-15T03:48:03.830Z,-9.62
2022-12-15T03:49:03.751Z,-9.69
2022-12-15T03:50:03.658Z,-9.69
2022-12-15T03:51:03.822Z,-9.69
2022-12-15T03:52:03.745Z,-9.69
2022-12-15T03:53:03.828Z,-9.75
2022-12-15T03:54:03.913Z,-9.75
2022-12-15T03:55:04.424Z,-9.75
2022-12-15T03:57:04.140Z,-9.81
2022-12-15T03:58:03.988Z,-9.81
2022-12-15T03:59:04.071Z,-9.81
2022-12-15T04:00:04.069Z,-9.88
2022-12-15T04:01:04.268Z,-9.88
2022-12-15T04:02:04.609Z,-9.88
2022-12-15T04:03:04.450Z,-9.88
2022-12-15T04:04:04.394Z,-9.88
2022-12-15T04:05:04.637Z,-9.88
2022-12-15T04:06:04.401Z,-9.94
2022-12-15T04:07:04.224Z,-9.94
2022-12-15T04:08:04.314Z,-9.94
2022-12-15T04:09:04.304Z,-9.94
2022-12-15T04:10:04.305Z,-10.00
2022-12-15T04:11:03.901Z,-10.00
2022-12-15T04:12:03.987Z,-10.00
2022-12-15T04:13:03.909Z,-10.06
2022-12-15T04:14:04.069Z,-10.06
2022-12-15T04:15:03.829Z,-10.06
2022-12-15T04:16:04.138Z,-10.06
2022-12-15T04:17:04.337Z,-10.12
2022-12-15T04:18:04.304Z,-10.12
2022-12-15T04:19:04.296Z,-10.12
2022-12-15T04:20:04.553Z,-10.12
2022-12-15T04:21:04.390Z,-10.12
2022-12-15T04:22:04.337Z,-10.19
2022-12-15T04:23:04.310Z,-10.19
2022-12-15T04:24:04.466Z,-10.19
2022-12-15T04:25:04.381Z,-10.19
2022-12-15T04:26:04.545Z,-10.19
2022-12-15T04:27:03.581Z,-10.25
2022-12-15T04:28:03.758Z,-10.25
2022-12-15T04:29:03.736Z,-10.25
2022-12-15T04:30:03.831Z,-10.25
2022-12-15T04:31:03.850Z,-10.25
2022-12-15T04:32:03.907Z,-10.25
2022-12-15T04:33:03.827Z,-10.25
2022-12-15T04:34:03.824Z,-10.25
2022-12-15T04:35:03.831Z,-10.25
2022-12-15T04:36:03.828Z,-10.25
2022-12-15T04:37:03.658Z,-10.25
2022-12-15T04:38:03.749Z,-10.25
2022-12-15T04:39:03.838Z,-10.25
2022-12-15T04:40:03.751Z,-10.25
2022-12-15T04:41:03.821Z,-10.25
2022-12-15T04:42:03.664Z,-10.25
2022-12-15T04:43:03.661Z,-10.25
2022-12-15T04:44:03.830Z,-10.25
2022-12-15T04:45:03.909Z,-10.25
2022-12-15T04:46:04.034Z,-10.25
2022-12-15T04:47:04.140Z,-10.25
2022-12-15T04:48:04.067Z,-10.25
2022-12-15T04:49:04.056Z,-10.25
2022-12-15T04:50:04.069Z,-10.25
2022-12-15T04:51:03.901Z,-10.25
2022-12-15T04:52:04.076Z,-10.31
2022-12-15T04:53:04.148Z,-10.31
2022-12-15T04:54:04.076Z,-10.31
2022-12-15T04:55:03.903Z,-10.31
2022-12-15T04:56:03.903Z,-10.31
2022-12-15T04:57:03.820Z,-10.31
2022-12-15T04:59:04.543Z,-10.31
2022-12-15T05:00:04.225Z,-10.31
2022-12-15T05:01:04.268Z,-10.31
2022-12-15T05:03:03.827Z,-10.31
2022-12-15T05:04:03.694Z,-10.31
2022-12-15T05:05:03.840Z,-10.38
2022-12-15T05:06:03.759Z,-10.38
2022-12-15T05:07:03.739Z,-10.38
2022-12-15T05:08:03.817Z,-10.31
2022-12-15T05:09:03.903Z,-10.38
2022-12-15T05:10:04.817Z,-10.38
2022-12-15T05:11:03.741Z,-10.38
2022-12-15T05:12:03.763Z,-10.38
2022-12-15T05:13:03.674Z,-10.38
2022-12-15T05:14:03.587Z,-10.38
2022-12-15T05:15:03.834Z,-10.38
2022-12-15T05:16:03.777Z,-10.38
2022-12-15T05:17:03.780Z,-10.44
2022-12-15T05:18:03.834Z,-10.38
2022-12-15T05:19:03.906Z,-10.44
2022-12-15T05:20:03.913Z,-10.44
2022-12-15T05:21:03.936Z,-10.44
2022-12-15T05:22:03.982Z,-10.44
2022-12-15T05:23:04.009Z,-10.44
2022-12-15T05:24:04.148Z,-10.44
2022-12-15T05:25:04.336Z,-10.44
2022-12-15T05:26:04.146Z,-10.38
2022-12-15T05:27:04.380Z,-10.38
2022-12-15T05:28:04.303Z,-10.38
2022-12-15T05:29:04.388Z,-10.38
2022-12-15T05:30:04.330Z,-10.44
2022-12-15T05:31:03.574Z,-10.44
2022-12-15T05:32:04.390Z,-10.44
2022-12-15T05:33:04.655Z,-10.44
2022-12-15T05:34:05.619Z,-10.44
2022-12-15T05:35:03.687Z,-10.44
2022-12-15T05:36:03.667Z,-10.44
2022-12-15T05:37:03.671Z,-10.44
2022-12-15T05:38:03.671Z,-10.44
2022-12-15T05:39:03.822Z,-10.44
2022-12-15T05:40:03.916Z,-10.50
2022-12-15T05:41:04.065Z,-10.44
2022-12-15T05:42:04.220Z,-10.44
2022-12-15T05:43:04.064Z,-10.50
2022-12-15T05:44:04.231Z,-10.50
2022-12-15T05:45:03.498Z,-10.50
2022-12-15T05:46:03.530Z,-10.44
2022-12-15T05:47:04.384Z,-10.50
2022-12-15T05:48:04.386Z,-10.50
2022-12-15T05:49:03.581Z,-10.50
2022-12-15T05:50:03.576Z,-10.50
2022-12-15T05:51:03.669Z,-10.50
2022-12-15T05:52:03.507Z,-10.44
2022-12-15T05:53:03.506Z,-10.44
2022-12-15T05:54:03.498Z,-10.44
2022-12-15T05:55:03.511Z,-10.44
2022-12-15T05:56:04.387Z,-10.44
2022-12-15T05:57:04.393Z,-10.44
2022-12-15T05:58:04.387Z,-10.44
2022-12-15T05:59:03.507Z,-10.44
2022-12-15T06:00:04.543Z,-10.44
2022-12-15T06:01:03.658Z,-10.44
2022-12-15T06:02:03.883Z,-10.44
2022-12-15T06:03:03.822Z,-10.44
2022-12-15T06:04:03.901Z,-10.44
2022-12-15T06:05:03.890Z,-10.44
2022-12-15T06:06:03.829Z,-10.44
2022-12-15T06:07:03.896Z,-10.44
2022-12-15T06:08:03.822Z,-10.44
2022-12-15T06:09:03.904Z,-10.44
2022-12-15T06:10:03.820Z,-10.44
2022-12-15T06:11:03.897Z,-10.44
2022-12-15T06:12:03.826Z,-10.50
2022-12-15T06:13:03.825Z,-10.50
2022-12-15T06:14:03.907Z,-10.50
2022-12-15T06:15:03.900Z,-10.50
2022-12-15T06:16:03.884Z,-10.50
2022-12-15T06:17:03.919Z,-10.50
2022-12-15T06:18:04.224Z,-10.50
2022-12-15T06:19:04.137Z,-10.50
2022-12-15T06:20:04.065Z,-10.50
2022-12-15T06:21:04.152Z,-10.50
2022-12-15T06:22:04.147Z,-10.50
2022-12-15T06:23:04.071Z,-10.56
2022-12-15T06:24:04.233Z,-10.56
2022-12-15T06:25:04.169Z,-10.56
2022-12-15T06:26:04.140Z,-10.56
2022-12-15T06:27:04.309Z,-10.56
2022-12-15T06:28:04.385Z,-10.56
2022-12-15T06:29:04.300Z,-10.56
2022-12-15T06:30:04.441Z,-10.56
2022-12-15T06:31:04.343Z,-10.62
2022-12-15T06:32:04.379Z,-10.62
2022-12-15T06:33:03.502Z,-10.62
2022-12-15T06:34:04.459Z,-10.62
2022-12-15T06:35:04.405Z,-10.69
2022-12-15T06:36:04.485Z,-10.69
2022-12-15T06:37:03.505Z,-10.69
2022-12-15T06:38:04.389Z,-10.69
2022-12-15T06:39:04.623Z,-10.69
2022-12-15T06:40:03.660Z,-10.69
2022-12-15T06:41:03.675Z,-10.69
2022-12-15T06:42:03.658Z,-10.69
2022-12-15T06:43:03.586Z,-10.75
2022-12-15T06:44:03.598Z,-10.75
2022-12-15T06:45:03.503Z,-10.75
2022-12-15T06:46:03.588Z,-10.75
2022-12-15T06:47:03.504Z,-10.75
2022-12-15T06:48:03.578Z,-10.81
2022-12-15T06:49:03.507Z,-10.81
2022-12-15T06:50:03.504Z,-10.81
2022-12-15T06:51:03.413Z,-10.88
2022-12-15T06:52:03.502Z,-10.88
2022-12-15T06:53:04.389Z,-10.88
2022-12-15T06:54:04.549Z,-10.88
2022-12-15T06:55:03.506Z,-10.88
2022-12-15T06:56:04.383Z,-10.94
2022-12-15T06:57:04.389Z,-10.94
2022-12-15T06:58:03.505Z,-10.94
2022-12-15T06:59:04.479Z,-10.94
2022-12-15T07:00:04.426Z,-10.94
2022-12-15T07:01:03.592Z,-11.00
2022-12-15T07:02:04.525Z,-11.00
2022-12-15T07:03:04.837Z,-11.00
2022-12-15T07:04:04.608Z,-11.00
2022-12-15T07:05:04.381Z,-11.00
2022-12-15T07:06:04.472Z,-11.00
2022-12-15T07:07:04.361Z,-11.00
2022-12-15T07:08:04.224Z,-11.00
2022-12-15T07:09:04.250Z,-11.00
2022-12-15T07:10:04.233Z,-11.06
2022-12-15T07:11:04.146Z,-11.06
2022-12-15T07:12:04.221Z,-11.06
2022-12-15T07:13:04.153Z,-11.06
2022-12-15T07:14:04.231Z,-11.06
2022-12-15T07:15:04.384Z,-11.06
2022-12-15T07:16:04.263Z,-11.06
2022-12-15T07:17:04.068Z,-11.06
2022-12-15T07:18:04.388Z,-11.06
2022-12-15T07:19:04.061Z,-11.06
2022-12-15T07:20:03.425Z,-11.12
2022-12-15T07:21:04.422Z,-11.06
2022-12-15T07:22:04.226Z,-11.06
2022-12-15T07:23:04.239Z,-11.12
2022-12-15T07:25:03.749Z,-11.12
2022-12-15T07:26:08.054Z,-11.12
2022-12-15T07:27:03.788Z,-11.12
2022-12-15T07:28:03.670Z,-11.06
2022-12-15T07:29:03.586Z,-11.12
2022-12-15T07:30:03.511Z,-11.06
2022-12-15T07:31:04.668Z,-11.06
2022-12-15T07:32:03.607Z,-11.06
2022-12-15T07:33:04.468Z,-11.06
2022-12-15T07:34:04.624Z,-11.12
2022-12-15T07:35:03.426Z,-11.06
2022-12-15T07:36:03.501Z,-11.06
2022-12-15T07:37:04.160Z,-11.12
2022-12-15T07:38:04.237Z,-11.06
2022-12-15T07:39:03.986Z,-11.06
2022-12-15T07:40:03.679Z,-11.06
2022-12-15T07:41:03.573Z,-11.06
2022-12-15T07:42:03.546Z,-11.12
2022-12-15T07:43:04.543Z,-11.06
2022-12-15T07:44:03.589Z,-11.06
2022-12-15T07:45:03.582Z,-11.06
2022-12-15T07:46:03.775Z,-11.06
2022-12-15T07:47:04.066Z,-11.06
2022-12-15T07:48:04.066Z,-11.06
2022-12-15T07:49:04.142Z,-11.06
2022-12-15T07:50:04.239Z,-11.06
2022-12-15T07:51:08.734Z,-11.06
2022-12-15T07:52:04.299Z,-11.06
2022-12-15T07:53:04.303Z,-11.00
2022-12-15T07:54:04.220Z,-11.00
2022-12-15T07:55:04.391Z,-11.00
2022-12-15T07:56:07.748Z,-11.00
2022-12-15T07:57:04.140Z,-11.00
2022-12-15T07:58:04.149Z,-11.00
2022-12-15T07:59:03.985Z,-10.94
2022-12-15T08:00:03.912Z,-10.94
2022-12-15T08:01:03.935Z,-10.94
2022-12-15T08:02:04.041Z,-10.94
2022-12-15T08:03:03.867Z,-10.94
2022-12-15T08:04:03.906Z,-10.88
2022-12-15T08:05:03.825Z,-10.88
2022-12-15T08:06:04.403Z,-10.88
2022-12-15T08:07:03.739Z,-10.81
2022-12-15T08:08:03.587Z,-10.81
2022-12-15T08:09:03.667Z,-10.81
2022-12-15T08:10:03.593Z,-10.75
2022-12-15T08:11:03.502Z,-10.75
2022-12-15T08:12:03.664Z,-10.69
2022-12-15T08:13:03.674Z,-10.69
2022-12-15T08:14:04.904Z,-10.62
2022-12-15T08:15:03.587Z,-10.62
2022-12-15T08:16:04.691Z,-10.56
2022-12-15T08:17:04.526Z,-10.56
2022-12-15T08:18:03.528Z,-10.56
2022-12-15T08:19:04.714Z,-10.50
2022-12-15T08:20:09.607Z,-10.44
2022-12-15T08:21:04.306Z,-10.44
2022-12-15T08:22:04.473Z,-10.38
2022-12-15T08:23:04.301Z,-10.38
2022-12-15T08:24:04.336Z,-10.31
2022-12-15T08:25:04.468Z,-10.25
2022-12-15T08:26:04.393Z,-10.25
2022-12-15T08:27:04.325Z,-10.19
2022-12-15T08:28:04.304Z,-10.12
2022-12-15T08:29:24.852Z,-10.12
2022-12-15T08:30:04.302Z,-10.06
2022-12-15T08:31:04.300Z,-10.00
2022-12-15T08:32:03.570Z,-10.00
2022-12-15T08:33:03.496Z,-9.94
2022-12-15T08:34:03.517Z,-9.88
2022-12-15T08:35:04.378Z,-9.81
2022-12-15T08:36:04.462Z,-9.75
2022-12-15T08:37:04.389Z,-9.75
2022-12-15T08:38:05.771Z,-9.69
2022-12-15T08:39:04.229Z,-9.62
2022-12-15T08:40:04.389Z,-9.56
2022-12-15T08:41:04.059Z,-9.56
2022-12-15T08:42:03.983Z,-9.50
2022-12-15T08:43:04.156Z,-9.44
2022-12-15T08:44:04.152Z,-9.38
2022-12-15T08:45:03.987Z,-9.31
2022-12-15T08:46:04.111Z,-9.25
2022-12-15T08:47:03.992Z,-9.19
2022-12-15T08:48:03.980Z,-9.12
2022-12-15T08:49:04.064Z,-9.06
2022-12-15T08:50:04.060Z,-9.00
2022-12-15T08:51:04.069Z,-8.94
2022-12-15T08:52:04.074Z,-8.88
2022-12-15T08:53:29.371Z,-8.81
2022-12-15T08:54:03.908Z,-8.75
2022-12-15T08:55:03.819Z,-8.69
2022-12-15T08:56:03.750Z,-8.62
2022-12-15T08:57:03.752Z,-8.50
2022-12-15T08:58:03.752Z,-8.44
2022-12-15T08:59:03.746Z,-8.38
2022-12-15T09:00:03.742Z,-8.31
2022-12-15T09:01:03.830Z,-8.19
2022-12-15T09:02:03.757Z,-8.12
2022-12-15T09:03:03.670Z,-8.06
2022-12-15T09:04:03.731Z,-8.00
2022-12-15T09:05:03.746Z,-7.94
2022-12-15T09:06:03.743Z,-7.88
2022-12-15T09:07:03.748Z,-7.81
2022-12-15T09:08:06.660Z,-7.75
2022-12-15T09:09:03.833Z,-7.69
2022-12-15T09:10:03.908Z,-7.62
2022-12-15T09:11:03.829Z,-7.56
2022-12-15T09:12:03.746Z,-7.50
2022-12-15T09:13:03.739Z,-7.44
2022-12-15T09:14:03.663Z,-7.38
2022-12-15T09:15:03.666Z,-7.25
2022-12-15T09:16:10.873Z,-7.19
2022-12-15T09:17:03.695Z,-7.19
2022-12-15T09:18:03.597Z,-7.12
2022-12-15T09:19:03.582Z,-7.06
2022-12-15T09:20:04.059Z,-7.00
2022-12-15T09:21:04.061Z,-6.94
2022-12-15T09:22:03.913Z,-6.88
2022-12-15T09:23:03.842Z,-6.88
2022-12-15T09:24:03.909Z,-6.81
2022-12-15T09:25:03.911Z,-6.75
2022-12-15T09:26:03.832Z,-6.69
2022-12-15T09:27:03.750Z,-6.62
2022-12-15T09:28:03.676Z,-6.56
2022-12-15T09:29:03.597Z,-6.56
2022-12-15T09:30:03.500Z,-6.50
2022-12-15T09:31:04.562Z,-6.44
2022-12-15T09:32:05.516Z,-6.38
2022-12-15T09:33:04.392Z,-6.31
2022-12-15T09:34:03.502Z,-6.31
2022-12-15T09:35:03.596Z,-6.25
2022-12-15T09:36:03.552Z,-6.19
2022-12-15T09:37:04.378Z,-6.12
2022-12-15T09:38:03.582Z,-6.06
2022-12-15T09:39:03.689Z,-6.06
2022-12-15T09:40:03.588Z,-6.06
2022-12-15T09:41:03.668Z,-5.94
2022-12-15T09:42:03.584Z,-5.88
2022-12-15T09:43:17.899Z,-5.81
2022-12-15T09:44:03.831Z,-5.81
2022-12-15T09:45:03.769Z,-5.75
2022-12-15T09:46:03.802Z,-5.69
2022-12-15T09:47:03.594Z,-5.69
2022-12-15T09:48:03.650Z,-5.62
2022-12-15T09:49:04.672Z,-5.56
2022-12-15T09:50:03.423Z,-5.50
2022-12-15T09:51:04.390Z,-5.50
2022-12-15T09:52:08.982Z,-5.44
2022-12-15T09:53:04.113Z,-5.44
2022-12-15T09:54:04.681Z,-5.38
2022-12-15T09:55:03.563Z,-5.31
2022-12-15T09:56:03.503Z,-5.31
2022-12-15T09:57:04.392Z,-5.25
2022-12-15T09:58:09.194Z,-5.25
2022-12-15T09:59:03.512Z,-5.25
2022-12-15T10:00:03.504Z,-5.19
2022-12-15T10:01:03.509Z,-5.19
2022-12-15T10:02:04.546Z,-5.12
2022-12-15T10:03:04.626Z,-5.12
2022-12-15T10:04:04.570Z,-5.06
2022-12-15T10:05:04.336Z,-5.06
2022-12-15T10:07:04.390Z,-5.00
2022-12-15T10:08:04.392Z,-5.00
2022-12-15T10:09:04.297Z,-4.94
2022-12-15T10:10:04.388Z,-4.94
2022-12-15T10:11:04.546Z,-4.94
2022-12-15T10:12:04.414Z,-4.88
2022-12-15T10:13:04.548Z,-4.88
2022-12-15T10:14:03.588Z,-4.88
2022-12-15T10:15:03.605Z,-4.88
2022-12-15T10:16:03.551Z,-4.81
2022-12-15T10:17:04.721Z,-4.81
2022-12-15T10:18:03.589Z,-4.81
2022-12-15T10:19:03.676Z,-4.81
2022-12-15T10:20:03.580Z,-4.81
2022-12-15T10:21:03.674Z,-4.81
2022-12-15T10:22:03.505Z,-4.75
2022-12-15T10:23:03.610Z,-4.75
2022-12-15T10:24:03.710Z,-4.75
2022-12-15T10:25:10.950Z,-4.75
2022-12-15T10:26:03.428Z,-4.69
2022-12-15T10:27:04.386Z,-4.69
2022-12-15T10:28:04.389Z,-4.62
2022-12-15T10:29:03.516Z,-4.62
2022-12-15T10:30:03.618Z,-4.62
2022-12-15T10:31:03.625Z,-4.56
2022-12-15T10:32:04.388Z,-4.56
2022-12-15T10:33:03.592Z,-4.50
2022-12-15T10:34:04.632Z,-4.50
2022-12-15T10:35:03.562Z,-4.50
2022-12-15T10:36:04.420Z,-4.44
2022-12-15T10:37:04.552Z,-4.44
2022-12-15T10:38:03.507Z,-4.38
2022-12-15T10:39:04.389Z,-4.38
2022-12-15T10:40:04.469Z,-4.38
2022-12-15T10:41:04.314Z,-4.38
2022-12-15T10:42:04.300Z,-4.31
2022-12-15T10:43:04.459Z,-4.31
2022-12-15T10:44:04.389Z,-4.31
2022-12-15T10:45:03.588Z,-4.31
2022-12-15T10:46:04.693Z,-4.25
2022-12-15T10:47:03.432Z,-4.25
2022-12-15T10:48:04.387Z,-4.25
2022-12-15T10:49:04.551Z,-4.25
2022-12-15T10:50:04.435Z,-4.19
2022-12-15T10:51:04.304Z,-4.19
2022-12-15T10:52:04.514Z,-4.19
2022-12-15T10:53:03.512Z,-4.19
2022-12-15T10:54:03.595Z,-4.19
2022-12-15T10:55:03.506Z,-4.19
2022-12-15T10:56:04.393Z,-4.12
2022-12-15T10:57:04.306Z,-4.12
2022-12-15T10:58:04.637Z,-4.12
2022-12-15T10:59:04.336Z,-4.06
2022-12-15T11:00:04.239Z,-4.12
2022-12-15T11:01:04.540Z,-4.06
2022-12-15T11:02:04.367Z,-4.06
2022-12-15T11:03:04.484Z,-4.06
2022-12-15T11:04:04.423Z,-4.06
2022-12-15T11:05:04.304Z,-4.06
2022-12-15T11:06:04.226Z,-4.06
2022-12-15T11:07:05.516Z,-4.06
2022-12-15T11:08:07.786Z,-4.06
2022-12-15T11:09:04.306Z,-4.00
2022-12-15T11:10:04.392Z,-4.00
2022-12-15T11:11:07.652Z,-4.00
2022-12-15T11:12:04.307Z,-4.00
2022-12-15T11:13:04.297Z,-3.94
2022-12-15T11:14:03.596Z,-3.94
2022-12-15T11:15:04.389Z,-3.94
2022-12-15T11:16:04.643Z,-3.94
2022-12-15T11:17:04.473Z,-3.88
2022-12-15T11:18:04.316Z,-3.88
2022-12-15T11:19:04.308Z,-3.88
2022-12-15T11:20:04.367Z,-3.81
2022-12-15T11:21:04.233Z,-3.81
2022-12-15T11:22:04.391Z,-3.81
2022-12-15T11:23:04.153Z,-3.75
2022-12-15T11:24:04.231Z,-3.75
2022-12-15T11:25:04.242Z,-3.69
2022-12-15T11:26:07.116Z,-3.69
2022-12-15T11:27:04.094Z,-3.69
2022-12-15T11:28:04.139Z,-3.62
2022-12-15T11:29:03.991Z,-3.62
2022-12-15T11:30:04.143Z,-3.62
2022-12-15T11:31:04.063Z,-3.56
2022-12-15T11:32:07.235Z,-3.56
2022-12-15T11:33:03.908Z,-3.50
2022-12-15T11:34:03.915Z,-3.50
2022-12-15T11:35:03.909Z,-3.50
2022-12-15T11:36:03.988Z,-3.44
2022-12-15T11:37:03.902Z,-3.44
2022-12-15T11:38:03.827Z,-3.38
2022-12-15T11:39:03.934Z,-3.38
2022-12-15T11:40:03.914Z,-3.38
2022-12-15T11:41:03.828Z,-3.31
2022-12-15T11:42:03.752Z,-3.31
2022-12-15T11:43:03.747Z,-3.31
2022-12-15T11:44:06.395Z,-3.31
2022-12-15T11:45:03.757Z,-3.25
2022-12-15T11:46:03.748Z,-3.25
2022-12-15T11:47:03.663Z,-3.25
2022-12-15T11:48:03.664Z,-3.19
2022-12-15T11:49:03.687Z,-3.19
2022-12-15T11:50:03.670Z,-3.19
2022-12-15T11:51:03.751Z,-3.19
2022-12-15T11:52:03.751Z,-3.19
2022-12-15T11:53:03.752Z,-3.19
2022-12-15T11:54:03.753Z,-3.19
2022-12-15T11:55:03.756Z,-3.12
2022-12-15T11:56:03.590Z,-3.12
2022-12-15T11:57:03.752Z,-3.19
2022-12-15T11:58:03.661Z,-3.19
2022-12-15T11:59:03.751Z,-3.19
2022-12-15T12:00:03.899Z,-3.19
2022-12-15T12:01:03.824Z,-3.19
2022-12-15T12:02:03.992Z,-3.12
2022-12-15T12:03:03.933Z,-3.12
2022-12-15T12:04:03.751Z,-3.12
2022-12-15T12:05:03.829Z,-3.12
2022-12-15T12:06:04.006Z,-3.12
2022-12-15T12:07:03.823Z,-3.12
2022-12-15T12:08:03.746Z,-3.12
2022-12-15T12:09:03.882Z,-3.12
2022-12-15T12:10:03.737Z,-3.06
2022-12-15T12:11:03.825Z,-3.06
2022-12-15T12:12:04.072Z,-3.06
2022-12-15T12:13:03.980Z,-3.06
2022-12-15T12:14:08.072Z,-3.00
2022-12-15T12:15:04.307Z,-3.00
2022-12-15T12:16:04.547Z,-3.00
2022-12-15T12:17:04.386Z,-3.00
2022-12-15T12:18:03.515Z,-2.94
2022-12-15T12:19:04.620Z,-2.94
2022-12-15T12:20:07.912Z,-2.94
2022-12-15T12:21:03.590Z,-2.94
2022-12-15T12:22:03.527Z,-2.94
2022-12-15T12:23:04.385Z,-2.88
2022-12-15T12:24:04.496Z,-2.88
2022-12-15T12:25:03.986Z,-2.88
2022-12-15T12:26:04.015Z,-2.88
2022-12-15T12:27:03.514Z,-2.88
2022-12-15T12:28:03.522Z,-2.88
2022-12-15T12:29:04.391Z,-2.81
2022-12-15T12:30:04.311Z,-2.81
2022-12-15T12:31:04.312Z,-2.81
2022-12-15T12:32:05.039Z,-2.81
2022-12-15T12:33:04.314Z,-2.81
2022-12-15T12:34:04.302Z,-2.75
2022-12-15T12:35:30.083Z,-2.75
2022-12-15T12:36:04.217Z,-2.75
2022-12-15T12:37:04.148Z,-2.75
2022-12-15T12:38:04.603Z,-2.75
2022-12-15T12:39:03.991Z,-2.69
2022-12-15T12:40:04.068Z,-2.69
2022-12-15T12:41:04.229Z,-2.69
2022-12-15T12:42:04.150Z,-2.69
2022-12-15T12:43:05.293Z,-2.69
2022-12-15T12:44:03.983Z,-2.69
2022-12-15T12:45:03.989Z,-2.62
2022-12-15T12:46:03.984Z,-2.62
2022-12-15T12:47:03.911Z,-2.62
2022-12-15T12:48:03.823Z,-2.56
2022-12-15T12:49:03.912Z,-2.56
2022-12-15T12:50:03.829Z,-2.56
2022-12-15T12:51:03.819Z,-2.56